createdAt,value
2022-10-18T00:00:54.755Z,3.90
2022-10-18T00:03:23.427Z,3.67
2022-10-18T00:05:51.580Z,4.03
2022-10-18T00:08:22.210Z,4.28
2022-10-18T00:10:50.042Z,4.40
2022-10-18T00:13:17.906Z,4.10
2022-10-18T00:15:58.520Z,3.88
2022-10-18T00:18:26.495Z,4.25
2022-10-18T00:21:02.683Z,4.22
2022-10-18T00:23:31.778Z,3.53
2022-10-18T00:26:01.489Z,4.18
2022-10-18T00:28:29.061Z,4.25
2022-10-18T00:30:56.898Z,3.97
2022-10-18T00:33:24.368Z,3.97
2022-10-18T00:35:54.058Z,4.18
2022-10-18T00:38:21.335Z,4.25
2022-10-18T00:40:49.092Z,4.13
2022-10-18T00:43:18.208Z,4.43
2022-10-18T00:45:45.602Z,4.10
2022-10-18T00:48:16.092Z,4.18
2022-10-18T00:50:43.781Z,4.43
2022-10-18T00:53:20.303Z,4.30
2022-10-18T00:55:48.249Z,4.33
2022-10-18T00:58:17.565Z,4.25
2022-10-18T01:00:45.263Z,3.83
2022-10-18T01:03:13.234Z,3.72
2022-10-18T01:05:45.809Z,3.85
2022-10-18T01:08:44.811Z,4.47
2022-10-18T01:11:26.943Z,4.18
2022-10-18T01:14:21.773Z,4.50
2022-10-18T01:16:55.300Z,4.68
2022-10-18T01:20:00.169Z,3.72
2022-10-18T01:22:44.232Z,3.90
2022-10-18T01:25:43.711Z,3.70
2022-10-18T01:28:53.070Z,4.43
2022-10-18T01:31:44.770Z,4.32
2022-10-18T01:34:18.571Z,4.15
2022-10-18T01:36:52.808Z,3.70
2022-10-18T01:39:25.049Z,4.50
2022-10-18T01:41:57.639Z,4.20
2022-10-18T01:44:28.099Z,4.57
2022-10-18T01:46:57.035Z,3.88
2022-10-18T01:49:25.941Z,4.60
2022-10-18T01:51:54.094Z,4.85
2022-10-18T01:54:41.620Z,3.67
2022-10-18T01:57:09.323Z,4.10
2022-10-18T01:59:48.994Z,4.00
2022-10-18T02:02:41.835Z,4.10
2022-10-18T02:05:27.715Z,3.85
2022-10-18T02:08:18.913Z,4.40
2022-10-18T02:11:05.278Z,3.33
2022-10-18T02:13:41.970Z,4.78
2022-10-18T02:16:24.500Z,3.97
2022-10-18T02:19:09.174Z,4.13
2022-10-18T02:21:39.184Z,4.03
2022-10-18T02:24:08.098Z,4.13
2022-10-18T02:26:35.878Z,4.30
2022-10-18T02:29:03.602Z,3.72
2022-10-18T02:31:49.893Z,4.00
2022-10-18T02:34:29.744Z,4.80
2022-10-18T02:36:59.835Z,3.90
2022-10-18T02:39:43.659Z,4.13
2022-10-18T02:42:11.896Z,4.13
2022-10-18T02:44:39.568Z,4.32
2022-10-18T02:47:08.502Z,4.18
2022-10-18T02:49:35.978Z,4.03
2022-10-18T02:52:03.451Z,3.70
2022-10-18T02:54:30.800Z,3.72
2022-10-18T02:56:58.218Z,4.10
2022-10-18T02:59:25.740Z,4.72
2022-10-18T03:01:53.203Z,3.80
2022-10-18T03:04:20.962Z,3.85
2022-10-18T03:06:48.466Z,3.75
2022-10-18T03:09:16.928Z,3.67
2022-10-18T03:11:44.383Z,3.95
2022-10-18T03:14:11.818Z,3.60
2022-10-18T03:16:39.124Z,3.65
2022-10-18T03:19:06.586Z,3.47
2022-10-18T03:21:34.090Z,3.10
2022-10-18T03:24:02.200Z,3.92
2022-10-18T03:26:29.804Z,3.63
2022-10-18T03:28:57.415Z,4.25
2022-10-18T03:31:25.017Z,3.58
2022-10-18T03:33:52.583Z,3.58
2022-10-18T03:36:19.869Z,4.07
2022-10-18T03:38:47.722Z,3.67
2022-10-18T03:41:15.090Z,4.32
2022-10-18T03:43:42.524Z,3.42
2022-10-18T03:46:10.105Z,3.45
2022-10-18T03:48:37.715Z,3.40
2022-10-18T03:51:05.443Z,3.72
2022-10-18T03:53:33.015Z,3.20
2022-10-18T03:56:00.340Z,4.05
2022-10-18T03:58:27.841Z,3.55
2022-10-18T04:00:55.703Z,4.18
2022-10-18T04:03:23.692Z,3.95
2022-10-18T04:05:51.330Z,4.63
2022-10-18T04:08:20.048Z,4.03
2022-10-18T04:10:47.392Z,4.00
2022-10-18T04:13:15.031Z,3.83
2022-10-18T04:15:43.379Z,3.80
2022-10-18T04:18:10.898Z,3.92
2022-10-18T04:20:38.312Z,3.10
2022-10-18T04:23:05.888Z,3.55
2022-10-18T04:25:33.439Z,3.35
2022-10-18T04:28:01.282Z,3.25
2022-10-18T04:30:28.830Z,3.47
2022-10-18T04:32:56.216Z,3.92
2022-10-18T04:35:26.147Z,3.08
2022-10-18T04:37:56.130Z,3.35
2022-10-18T04:40:23.611Z,3.28
2022-10-18T04:42:53.509Z,3.63
2022-10-18T04:45:21.313Z,3.78
2022-10-18T04:47:48.626Z,3.35
2022-10-18T04:50:16.141Z,3.47
2022-10-18T04:52:43.729Z,3.10
2022-10-18T04:55:13.849Z,3.08
2022-10-18T04:57:41.251Z,3.58
2022-10-18T05:00:08.956Z,3.03
2022-10-18T05:02:36.491Z,3.00
2022-10-18T05:05:04.611Z,3.20
2022-10-18T05:07:31.916Z,2.95
2022-10-18T05:09:59.419Z,3.10
2022-10-18T05:12:26.940Z,3.28
2022-10-18T05:14:56.275Z,3.17
2022-10-18T05:17:23.884Z,2.90
2022-10-18T05:19:51.349Z,2.95
2022-10-18T05:22:19.802Z,3.08
2022-10-18T05:24:47.269Z,2.95
2022-10-18T05:27:14.699Z,2.75
2022-10-18T05:29:42.150Z,3.10
2022-10-18T05:32:09.437Z,3.00
2022-10-18T05:34:36.907Z,3.40
2022-10-18T05:37:04.341Z,3.10
2022-10-18T05:39:31.819Z,3.38
2022-10-18T05:42:00.105Z,2.65
2022-10-18T05:44:27.441Z,2.70
2022-10-18T05:46:54.778Z,2.80
2022-10-18T05:49:22.336Z,3.40
2022-10-18T05:51:49.702Z,3.17
2022-10-18T05:54:17.423Z,3.53
2022-10-18T05:56:44.916Z,3.33
2022-10-18T05:59:12.566Z,3.13
2022-10-18T06:01:41.535Z,3.28
2022-10-18T06:04:11.554Z,5.32
2022-10-18T06:06:39.270Z,4.50
2022-10-18T06:09:08.704Z,4.57
2022-10-18T06:11:38.484Z,6.63
2022-10-18T06:14:08.118Z,6.55
2022-10-18T06:16:38.460Z,5.03
2022-10-18T06:19:05.951Z,3.95
2022-10-18T06:21:33.321Z,4.60
2022-10-18T06:24:00.750Z,4.25
2022-10-18T06:26:28.619Z,3.90
2022-10-18T06:28:57.319Z,3.60
2022-10-18T06:31:25.019Z,3.90
2022-10-18T06:33:53.452Z,3.58
2022-10-18T06:36:24.270Z,3.80
2022-10-18T06:38:52.039Z,4.07
2022-10-18T06:41:20.455Z,3.50
2022-10-18T06:43:53.307Z,4.07
2022-10-18T06:46:21.940Z,3.75
2022-10-18T06:48:49.462Z,3.88
2022-10-18T06:51:18.336Z,3.33
2022-10-18T06:53:59.113Z,4.25
2022-10-18T06:56:33.970Z,3.25
2022-10-18T06:59:01.284Z,3.60
2022-10-18T07:01:28.948Z,3.80
2022-10-18T07:03:56.538Z,3.40
2022-10-18T07:06:24.530Z,3.30
2022-10-18T07:08:55.388Z,3.67
2022-10-18T07:11:26.936Z,4.28
2022-10-18T07:14:00.813Z,3.95
2022-10-18T07:16:28.772Z,3.78
2022-10-18T07:18:56.215Z,3.55
2022-10-18T07:21:26.352Z,3.83
2022-10-18T07:23:54.382Z,3.55
2022-10-18T07:26:21.866Z,3.55
2022-10-18T07:29:01.841Z,4.40
2022-10-18T07:31:29.957Z,3.53
2022-10-18T07:33:57.979Z,4.28
2022-10-18T07:36:26.173Z,3.90
2022-10-18T07:38:53.881Z,3.65
2022-10-18T07:41:22.155Z,3.97
2022-10-18T07:43:51.208Z,3.90
2022-10-18T07:46:20.685Z,3.47
2022-10-18T07:48:51.844Z,3.65
2022-10-18T07:51:20.508Z,3.80
2022-10-18T07:53:51.672Z,3.75
2022-10-18T07:56:21.699Z,3.42
2022-10-18T07:58:52.185Z,3.75
2022-10-18T08:01:21.401Z,3.67
2022-10-18T08:03:54.773Z,3.78
2022-10-18T08:06:23.185Z,3.60
2022-10-18T08:08:50.965Z,3.15
2022-10-18T08:11:24.753Z,4.28
2022-10-18T08:13:53.209Z,3.58
2022-10-18T08:19:00.242Z,3.78
2022-10-18T08:21:27.617Z,3.55
2022-10-18T08:23:56.196Z,4.30
2022-10-18T08:26:23.656Z,3.60
2022-10-18T08:28:54.297Z,3.80
2022-10-18T08:31:26.549Z,3.80
2022-10-18T08:33:56.944Z,3.38
2022-10-18T08:36:24.614Z,3.50
2022-10-18T08:38:52.197Z,3.50
2022-10-18T08:41:57.941Z,3.40
2022-10-18T08:44:28.821Z,3.47
2022-10-18T08:47:16.593Z,4.13
2022-10-18T08:49:53.008Z,3.60
2022-10-18T08:52:44.946Z,3.72
2022-10-18T08:55:43.143Z,3.25
2022-10-18T08:58:17.787Z,3.60
2022-10-18T09:01:37.987Z,3.40
2022-10-18T09:04:41.122Z,3.17
2022-10-18T09:07:27.148Z,3.50
2022-10-18T09:10:05.905Z,3.75
2022-10-18T09:12:45.721Z,3.00
2022-10-18T09:15:48.533Z,3.38
2022-10-18T09:18:43.474Z,3.03
2022-10-18T09:21:22.986Z,3.05
2022-10-18T09:24:05.684Z,2.90
2022-10-18T09:26:48.102Z,3.20
2022-10-18T09:29:16.689Z,3.47
2022-10-18T09:31:52.233Z,3.15
2022-10-18T09:34:29.811Z,3.30
2022-10-18T09:36:57.941Z,3.28
2022-10-18T09:39:37.028Z,3.53
2022-10-18T09:42:15.015Z,3.20
2022-10-18T09:44:58.771Z,3.53
2022-10-18T09:47:45.976Z,3.13
2022-10-18T09:50:38.388Z,3.05
2022-10-18T09:53:21.806Z,3.25
2022-10-18T09:56:10.671Z,3.28
2022-10-18T09:58:42.747Z,3.42
2022-10-18T10:01:29.980Z,3.70
2022-10-18T10:03:58.032Z,3.13
2022-10-18T10:06:27.261Z,3.97
2022-10-18T10:09:31.368Z,3.70
2022-10-18T10:12:00.879Z,5.30
2022-10-18T10:14:30.736Z,5.05
2022-10-18T10:17:20.339Z,5.53
2022-10-18T10:20:40.343Z,4.97
2022-10-18T10:23:21.966Z,4.68
2022-10-18T10:26:03.996Z,5.03
2022-10-18T10:28:48.786Z,4.20
2022-10-18T10:31:19.829Z,4.20
2022-10-18T10:33:48.062Z,3.92
2022-10-18T10:36:21.613Z,4.15
2022-10-18T10:39:09.048Z,4.45
2022-10-18T10:41:38.333Z,3.92
2022-10-18T10:44:25.356Z,4.28
2022-10-18T10:46:54.978Z,4.45
2022-10-18T10:49:39.787Z,3.55
2022-10-18T10:52:26.887Z,3.90
2022-10-18T10:55:11.328Z,3.60
2022-10-18T10:57:52.366Z,3.60
2022-10-18T11:00:43.825Z,3.60
2022-10-18T11:03:33.773Z,3.50
2022-10-18T11:06:02.030Z,3.53
2022-10-18T11:08:51.659Z,3.67
2022-10-18T11:11:28.009Z,3.00
2022-10-18T11:14:24.750Z,3.45
2022-10-18T11:17:35.171Z,3.40
2022-10-18T11:20:19.643Z,3.25
2022-10-18T11:22:50.175Z,3.45
2022-10-18T11:25:18.111Z,3.20
2022-10-18T11:27:56.914Z,3.17
2022-10-18T11:30:55.571Z,3.53
2022-10-18T11:33:56.179Z,3.05
2022-10-18T11:36:20.898Z,3.35
2022-10-18T11:39:18.705Z,3.00
2022-10-18T11:42:00.665Z,3.67
2022-10-18T11:44:30.792Z,3.22
2022-10-18T11:47:13.528Z,3.03
2022-10-18T11:50:04.700Z,2.97
2022-10-18T11:52:55.027Z,3.47
2022-10-18T11:56:00.125Z,2.60
2022-10-18T11:58:56.915Z,3.08
2022-10-18T12:01:37.241Z,2.88
2022-10-18T12:04:14.457Z,3.08
2022-10-18T12:06:45.322Z,3.28
2022-10-18T12:09:31.282Z,2.83
2022-10-18T12:12:06.584Z,3.20
2022-10-18T12:14:38.461Z,3.38
2022-10-18T12:17:41.630Z,3.40
2022-10-18T12:20:33.821Z,2.90
2022-10-18T12:23:06.501Z,3.33
2022-10-18T12:25:38.360Z,2.92
2022-10-18T12:28:36.317Z,2.80
2022-10-18T12:31:15.579Z,2.70
2022-10-18T12:33:47.834Z,2.58
2022-10-18T12:36:21.147Z,2.57
2022-10-18T12:41:31.194Z,3.22
2022-10-18T12:44:28.997Z,2.72
2022-10-18T12:47:01.387Z,2.88
2022-10-18T12:49:32.224Z,3.13
2022-10-18T12:52:02.821Z,2.95
2022-10-18T12:54:32.443Z,3.35
2022-10-18T12:57:01.865Z,2.85
2022-10-18T12:59:29.376Z,2.97
2022-10-18T13:01:59.731Z,2.80
2022-10-18T13:04:33.597Z,2.78
2022-10-18T13:07:00.923Z,2.90
2022-10-18T13:09:31.356Z,2.72
2022-10-18T13:12:18.613Z,2.50
2022-10-18T13:15:26.494Z,2.55
2022-10-18T13:18:27.447Z,2.63
2022-10-18T13:21:10.323Z,2.70
2022-10-18T13:24:16.262Z,2.65
2022-10-18T13:27:34.933Z,2.80
2022-10-18T13:30:21.555Z,2.88
2022-10-18T13:33:15.651Z,2.58
2022-10-18T13:35:55.614Z,2.33
2022-10-18T13:38:38.506Z,2.63
2022-10-18T13:41:07.701Z,2.30
2022-10-18T13:43:52.161Z,2.17
2022-10-18T13:46:24.628Z,2.70
2022-10-18T13:49:05.901Z,2.30
2022-10-18T13:51:54.666Z,2.60
2022-10-18T13:54:40.266Z,2.45
2022-10-18T13:57:14.074Z,2.55
2022-10-18T14:00:00.378Z,2.65
2022-10-18T14:02:51.231Z,2.70
2022-10-18T14:05:52.273Z,2.60
2022-10-18T14:08:36.413Z,2.67
2022-10-18T14:11:25.254Z,3.00
2022-10-18T14:14:04.880Z,2.33
2022-10-18T14:16:54.791Z,2.22
2022-10-18T14:19:42.656Z,2.13
2022-10-18T14:22:25.343Z,2.30
2022-10-18T14:24:57.734Z,2.60
2022-10-18T14:27:32.492Z,2.40
2022-10-18T14:30:18.797Z,2.03
2022-10-18T14:32:52.080Z,2.42
2022-10-18T14:35:32.493Z,2.40
2022-10-18T14:38:03.471Z,2.30
2022-10-18T14:40:33.220Z,2.60
2022-10-18T14:43:14.521Z,2.30
2022-10-18T14:45:42.796Z,2.65
2022-10-18T14:48:16.800Z,2.33
2022-10-18T14:50:49.880Z,2.40
2022-10-18T14:55:56.483Z,2.13
2022-10-18T14:58:23.991Z,2.47
2022-10-18T15:00:51.815Z,2.00
2022-10-18T15:03:19.351Z,2.40
2022-10-18T15:06:02.370Z,2.60
2022-10-18T15:08:42.010Z,3.15
2022-10-18T15:11:14.140Z,3.33
2022-10-18T15:13:50.398Z,3.33
2022-10-18T15:16:20.595Z,3.28
2022-10-18T15:19:07.420Z,3.08
2022-10-18T15:21:36.161Z,3.08
2022-10-18T15:24:27.954Z,3.25
2022-10-18T15:26:59.797Z,3.67
2022-10-18T15:29:32.520Z,3.20
2022-10-18T15:32:08.094Z,3.00
2022-10-18T15:34:35.648Z,3.15
2022-10-18T15:37:28.270Z,2.67
2022-10-18T15:40:18.480Z,3.20
2022-10-18T15:42:46.232Z,3.00
2022-10-18T15:45:27.036Z,2.92
2022-10-18T15:48:00.501Z,2.92
2022-10-18T15:50:40.109Z,3.28
2022-10-18T15:53:23.182Z,2.90
2022-10-18T15:55:58.470Z,3.08
2022-10-18T15:58:30.418Z,2.78
2022-10-18T16:01:00.800Z,3.20
2022-10-18T16:03:28.784Z,2.97
2022-10-18T16:06:04.652Z,3.00
2022-10-18T16:08:37.607Z,2.95
2022-10-18T16:11:06.002Z,3.15
2022-10-18T16:13:34.378Z,2.92
2022-10-18T16:16:02.452Z,3.45
2022-10-18T16:18:30.602Z,3.28
2022-10-18T16:20:58.178Z,3.38
2022-10-18T16:23:28.687Z,3.13
2022-10-18T16:25:56.993Z,2.97
2022-10-18T16:28:26.071Z,3.25
2022-10-18T16:30:59.482Z,2.95
2022-10-18T16:33:27.558Z,3.15
2022-10-18T16:35:55.363Z,3.08
2022-10-18T16:38:32.460Z,3.40
2022-10-18T16:41:04.648Z,3.40
2022-10-18T16:43:33.173Z,4.78
2022-10-18T16:46:01.527Z,3.75
2022-10-18T16:48:29.082Z,4.50
2022-10-18T16:50:57.885Z,4.43
2022-10-18T16:53:26.195Z,4.00
2022-10-18T16:55:59.397Z,4.57
2022-10-18T16:58:29.371Z,3.83
2022-10-18T17:00:58.014Z,4.22
2022-10-18T17:03:26.209Z,3.67
2022-10-18T17:05:54.095Z,3.50
2022-10-18T17:08:24.399Z,4.22
2022-10-18T17:10:55.043Z,4.35
2022-10-18T17:13:23.629Z,3.80
2022-10-18T17:15:51.688Z,4.22
2022-10-18T17:18:26.337Z,4.18
2022-10-18T17:20:54.532Z,3.65
2022-10-18T17:23:21.958Z,3.78
2022-10-18T17:26:04.788Z,3.53
2022-10-18T17:28:38.381Z,3.28
2022-10-18T17:31:07.599Z,3.60
2022-10-18T17:33:35.360Z,3.42
2022-10-18T17:36:02.664Z,3.35
2022-10-18T17:38:30.072Z,3.42
2022-10-18T17:40:57.559Z,3.53
2022-10-18T17:43:25.129Z,3.88
2022-10-18T17:45:56.943Z,4.20
2022-10-18T17:48:26.040Z,4.30
2022-10-18T17:50:54.730Z,3.83
2022-10-18T17:53:25.858Z,3.47
2022-10-18T17:56:02.594Z,3.40
2022-10-18T17:58:31.368Z,3.67
2022-10-18T18:01:17.811Z,4.05
2022-10-18T18:03:47.608Z,3.40
2022-10-18T18:06:31.346Z,3.65
2022-10-18T18:09:06.865Z,3.90
2022-10-18T18:11:37.705Z,3.60
2022-10-18T18:14:09.938Z,3.85
2022-10-18T18:16:49.148Z,3.60
2022-10-18T18:19:19.074Z,3.30
2022-10-18T18:21:49.481Z,3.42
2022-10-18T18:24:17.759Z,3.72
2022-10-18T18:26:45.355Z,3.65
2022-10-18T18:29:12.865Z,3.85
2022-10-18T18:31:43.731Z,3.40
2022-10-18T18:34:12.246Z,3.47
2022-10-18T18:36:39.898Z,3.58
2022-10-18T18:39:08.967Z,3.30
2022-10-18T18:41:37.804Z,3.45
2022-10-18T18:44:06.340Z,3.50
2022-10-18T18:46:38.889Z,3.63
2022-10-18T18:49:07.942Z,3.50
2022-10-18T18:51:38.110Z,3.03
2022-10-18T18:54:09.595Z,3.10
2022-10-18T18:56:38.264Z,3.17
2022-10-18T18:59:07.177Z,3.10
2022-10-18T19:01:38.278Z,3.17
2022-10-18T19:04:07.220Z,3.00
2022-10-18T19:06:43.180Z,3.20
2022-10-18T19:09:19.189Z,3.20
2022-10-18T19:11:48.318Z,3.03
2022-10-18T19:14:15.948Z,3.13
2022-10-18T19:16:49.101Z,3.50
2022-10-18T19:21:53.407Z,3.58
2022-10-18T19:24:22.115Z,3.80
2022-10-18T19:26:50.976Z,3.83
2022-10-18T19:29:22.059Z,4.10
2022-10-18T19:31:54.104Z,4.10
2022-10-18T19:34:23.423Z,4.05
2022-10-18T19:36:51.610Z,4.32
2022-10-18T19:39:27.868Z,3.92
2022-10-18T19:41:57.468Z,4.07
2022-10-18T19:44:28.421Z,4.30
2022-10-18T19:46:56.148Z,5.28
2022-10-18T19:49:23.473Z,3.90
2022-10-18T19:51:50.933Z,4.05
2022-10-18T19:54:18.741Z,4.68
2022-10-18T19:56:46.661Z,4.30
2022-10-18T19:59:15.880Z,4.03
2022-10-18T20:01:44.128Z,4.10
2022-10-18T20:04:13.164Z,3.97
2022-10-18T20:06:41.576Z,4.05
2022-10-18T20:09:13.442Z,4.10
2022-10-18T20:11:43.871Z,4.22
2022-10-18T20:14:11.619Z,3.88
2022-10-18T20:16:39.179Z,4.22
2022-10-18T20:19:07.611Z,3.83
2022-10-18T20:21:36.331Z,4.45
2022-10-18T20:24:05.521Z,4.13
2022-10-18T20:26:34.620Z,4.10
2022-10-18T20:29:02.145Z,3.90
2022-10-18T20:31:37.302Z,3.90
2022-10-18T20:34:11.564Z,3.90
2022-10-18T20:36:40.348Z,3.88
2022-10-18T20:39:07.919Z,3.72
2022-10-18T20:41:41.224Z,3.78
2022-10-18T20:44:14.181Z,3.70
2022-10-18T20:46:42.067Z,4.22
2022-10-18T20:49:13.069Z,3.90
2022-10-18T20:51:40.994Z,3.78
2022-10-18T20:54:09.426Z,3.80
2022-10-18T20:56:38.782Z,4.15
2022-10-18T20:59:09.573Z,3.85
2022-10-18T21:01:39.933Z,3.58
2022-10-18T21:04:09.789Z,4.00
2022-10-18T21:06:42.869Z,3.35
2022-10-18T21:11:41.525Z,3.97
2022-10-18T21:14:17.527Z,3.50
2022-10-18T21:16:46.155Z,4.00
2022-10-18T21:19:23.827Z,3.78
2022-10-18T21:21:54.869Z,3.65
2022-10-18T21:24:24.022Z,3.55
2022-10-18T21:26:51.655Z,3.67
2022-10-18T21:29:22.256Z,3.80
2022-10-18T21:31:58.047Z,3.75
2022-10-18T21:34:26.294Z,4.10
2022-10-18T21:36:54.158Z,3.30
2022-10-18T21:41:51.572Z,3.50
2022-10-18T21:44:19.073Z,3.38
2022-10-18T21:46:46.937Z,3.65
2022-10-18T21:49:15.554Z,3.80
2022-10-18T21:51:43.632Z,3.85
2022-10-18T21:54:16.514Z,3.22
2022-10-18T21:56:44.944Z,3.58
2022-10-18T21:59:12.889Z,3.08
2022-10-18T22:01:40.859Z,3.22
2022-10-18T22:04:22.026Z,3.20
2022-10-18T22:06:50.080Z,3.13
2022-10-18T22:09:17.797Z,3.47
2022-10-18T22:11:48.628Z,3.03
2022-10-18T22:14:16.185Z,3.40
2022-10-18T22:16:43.710Z,3.30
2022-10-18T22:19:11.864Z,3.28
2022-10-18T22:21:39.338Z,3.17
2022-10-18T22:24:09.061Z,3.53
2022-10-18T22:26:40.145Z,3.10
2022-10-18T22:29:11.853Z,3.17
2022-10-18T22:31:42.092Z,3.25
2022-10-18T22:34:13.315Z,3.30
2022-10-18T22:36:41.168Z,3.45
2022-10-18T22:39:09.448Z,3.20
2022-10-18T22:41:37.105Z,3.22
2022-10-18T22:44:05.108Z,3.25
2022-10-18T22:46:33.178Z,3.40
2022-10-18T22:49:01.190Z,3.15
2022-10-18T22:51:28.725Z,3.28
2022-10-18T22:53:56.401Z,3.10
2022-10-18T22:56:24.303Z,3.00
2022-10-18T22:58:52.535Z,3.20
2022-10-18T23:01:22.698Z,3.20
2022-10-18T23:03:55.228Z,3.00
2022-10-18T23:06:25.224Z,3.00
2022-10-18T23:08:54.441Z,2.97
2022-10-18T23:11:22.336Z,3.17
2022-10-18T23:13:50.168Z,3.10
2022-10-18T23:16:18.309Z,3.03
2022-10-18T23:18:53.665Z,3.10
2022-10-18T23:21:24.306Z,2.95
2022-10-18T23:23:52.946Z,2.90
2022-10-18T23:26:25.216Z,2.85
2022-10-18T23:28:53.689Z,2.73
2022-10-18T23:31:33.285Z,2.88
2022-10-18T23:34:04.080Z,3.33
2022-10-18T23:36:33.778Z,2.90
2022-10-18T23:39:02.261Z,3.15
2022-10-18T23:41:30.046Z,2.70
2022-10-18T23:43:57.677Z,3.15
2022-10-18T23:46:25.250Z,3.13
2022-10-18T23:48:52.834Z,3.45
2022-10-18T23:51:20.511Z,3.00
2022-10-18T23:53:49.096Z,3.15
2022-10-18T23:56:17.070Z,2.88
2022-10-18T23:58:45.632Z,3.10
